sensor_id;sensor_type;location;lat;lon;timestamp;temperature;humidity
19363;DHT22;9817;50.80926400;5.16316200;2023-04-03T00:01:08;4.80;99.90
19363;DHT22;9817;50.80926400;5.16316200;2023-04-03T00:03:35;4.70;99.90
19363;DHT22;9817;50.80926400;5.16316200;2023-04-03T00:06:01;4.80;99.90
19363;DHT22;9817;50.80926400;5.16316200;2023-04-03T00:08:27;4.90;99.90
19363;DHT22;9817;50.80926400;5.16316200;2023-04-03T00:10:52;4.70;99.90
19363;DHT22;9817;50.80926400;5.16316200;2023-04-03T00:13:18;4.70;99.90
19363;DHT22;9817;50.80926400;5.16316200;2023-04-03T00:15:44;4.60;99.90
19363;DHT22;9817;50.80926400;5.16316200;2023-04-03T00:18:10;4.60;99.90
19363;DHT22;9817;50.80926400;5.16316200;2023-04-03T00:20:36;4.60;99.90
19363;DHT22;9817;50.80926400;5.16316200;2023-04-03T00:23:02;4.70;99.90
19363;DHT22;9817;50.80926400;5.16316200;2023-04-03T00:25:28;4.60;99.90
19363;DHT22;9817;50.80926400;5.16316200;2023-04-03T00:27:53;4.60;99.90
19363;DHT22;9817;50.80926400;5.16316200;2023-04-03T00:30:21;4.50;99.90
19363;DHT22;9817;50.80926400;5.16316200;2023-04-03T00:32:50;4.50;99.90
19363;DHT22;9817;50.80926400;5.16316200;2023-04-03T00:35:16;4.40;99.90
19363;DHT22;9817;50.80926400;5.16316200;2023-04-03T00:37:42;4.30;99.90
19363;DHT22;9817;50.80926400;5.16316200;2023-04-03T00:40:09;4.40;99.90
19363;DHT22;9817;50.80926400;5.16316200;2023-04-03T00:42:36;4.20;99.90
19363;DHT22;9817;50.80926400;5.16316200;2023-04-03T00:47:29;4.10;99.90
19363;DHT22;9817;50.80926400;5.16316200;2023-04-03T00:49:56;4.20;99.90
19363;DHT22;9817;50.80926400;5.16316200;2023-04-03T00:52:25;4.30;99.90
19363;DHT22;9817;50.80926400;5.16316200;2023-04-03T00:54:54;4.30;99.90
19363;DHT22;9817;50.80926400;5.16316200;2023-04-03T00:57:22;4.30;99.90
19363;DHT22;9817;50.80926400;5.16316200;2023-04-03T00:59:55;4.30;99.90
19363;DHT22;9817;50.80926400;5.16316200;2023-04-03T01:02:23;4.20;99.90
19363;DHT22;9817;50.80926400;5.16316200;2023-04-03T01:04:49;4.20;99.90
19363;DHT22;9817;50.80926400;5.16316200;2023-04-03T01:07:29;4.10;99.90
19363;DHT22;9817;50.80926400;5.16316200;2023-04-03T01:10:01;4.20;99.90
19363;DHT22;9817;50.80926400;5.16316200;2023-04-03T01:12:34;4.20;99.90
19363;DHT22;9817;50.80926400;5.16316200;2023-04-03T01:15:13;4.10;99.90
19363;DHT22;9817;50.80926400;5.16316200;2023-04-03T01:20:31;4.10;99.90
19363;DHT22;9817;50.80926400;5.16316200;2023-04-03T01:28:12;4.00;99.90
19363;DHT22;9817;50.80926400;5.16316200;2023-04-03T01:33:20;4.00;99.90
19363;DHT22;9817;50.80926400;5.16316200;2023-04-03T01:35:45;3.90;99.90
19363;DHT22;9817;50.80926400;5.16316200;2023-04-03T01:38:11;3.80;99.90
19363;DHT22;9817;50.80926400;5.16316200;2023-04-03T01:40:36;3.70;99.90
19363;DHT22;9817;50.80926400;5.16316200;2023-04-03T01:43:02;3.70;99.90
19363;DHT22;9817;50.80926400;5.16316200;2023-04-03T01:45:28;3.70;99.90
19363;DHT22;9817;50.80926400;5.16316200;2023-04-03T01:47:54;3.80;99.90
19363;DHT22;9817;50.80926400;5.16316200;2023-04-03T01:50:19;3.90;99.90
19363;DHT22;9817;50.80926400;5.16316200;2023-04-03T01:52:45;3.90;99.90
19363;DHT22;9817;50.80926400;5.16316200;2023-04-03T01:55:11;3.90;99.90
19363;DHT22;9817;50.80926400;5.16316200;2023-04-03T01:57:36;3.90;99.90
19363;DHT22;9817;50.80926400;5.16316200;2023-04-03T02:00:02;3.90;99.90
19363;DHT22;9817;50.80926400;5.16316200;2023-04-03T02:02:28;3.90;99.90
19363;DHT22;9817;50.80926400;5.16316200;2023-04-03T02:04:54;3.90;99.90
19363;DHT22;9817;50.80926400;5.16316200;2023-04-03T02:07:20;3.80;99.90
19363;DHT22;9817;50.80926400;5.16316200;2023-04-03T02:09:45;3.80;99.90
19363;DHT22;9817;50.80926400;5.16316200;2023-04-03T02:12:11;3.80;99.90
19363;DHT22;9817;50.80926400;5.16316200;2023-04-03T02:14:36;3.80;99.90
19363;DHT22;9817;50.80926400;5.16316200;2023-04-03T02:17:02;3.70;99.90
19363;DHT22;9817;50.80926400;5.16316200;2023-04-03T02:19:31;3.70;99.90
19363;DHT22;9817;50.80926400;5.16316200;2023-04-03T02:21:56;3.90;99.90
19363;DHT22;9817;50.80926400;5.16316200;2023-04-03T02:24:22;3.80;99.90
19363;DHT22;9817;50.80926400;5.16316200;2023-04-03T02:26:47;3.90;99.90
19363;DHT22;9817;50.80926400;5.16316200;2023-04-03T02:29:13;3.70;99.90
19363;DHT22;9817;50.80926400;5.16316200;2023-04-03T02:31:39;3.70;99.90
19363;DHT22;9817;50.80926400;5.16316200;2023-04-03T02:34:04;3.80;99.90
19363;DHT22;9817;50.80926400;5.16316200;2023-04-03T02:36:31;3.80;99.90
19363;DHT22;9817;50.80926400;5.16316200;2023-04-03T02:38:56;3.80;99.90
19363;DHT22;9817;50.80926400;5.16316200;2023-04-03T02:41:22;3.90;99.90
19363;DHT22;9817;50.80926400;5.16316200;2023-04-03T02:43:47;3.70;99.90
19363;DHT22;9817;50.80926400;5.16316200;2023-04-03T02:46:13;3.80;99.90
19363;DHT22;9817;50.80926400;5.16316200;2023-04-03T02:48:40;3.60;99.90
19363;DHT22;9817;50.80926400;5.16316200;2023-04-03T02:51:06;3.50;99.90
19363;DHT22;9817;50.80926400;5.16316200;2023-04-03T02:53:32;3.60;99.90
19363;DHT22;9817;50.80926400;5.16316200;2023-04-03T02:55:57;3.50;99.90
19363;DHT22;9817;50.80926400;5.16316200;2023-04-03T02:58:23;3.60;99.90
19363;DHT22;9817;50.80926400;5.16316200;2023-04-03T03:00:48;3.50;99.90
19363;DHT22;9817;50.80926400;5.16316200;2023-04-03T03:03:14;3.40;99.90
19363;DHT22;9817;50.80926400;5.16316200;2023-04-03T03:05:40;3.40;99.90
19363;DHT22;9817;50.80926400;5.16316200;2023-04-03T03:08:06;3.40;99.90
19363;DHT22;9817;50.80926400;5.16316200;2023-04-03T03:10:31;3.40;99.90
19363;DHT22;9817;50.80926400;5.16316200;2023-04-03T03:12:57;3.40;99.90
19363;DHT22;9817;50.80926400;5.16316200;2023-04-03T03:15:22;3.40;99.90
19363;DHT22;9817;50.80926400;5.16316200;2023-04-03T03:17:48;3.50;99.90
19363;DHT22;9817;50.80926400;5.16316200;2023-04-03T03:20:13;3.40;99.90
19363;DHT22;9817;50.80926400;5.16316200;2023-04-03T03:22:40;3.40;99.90
19363;DHT22;9817;50.80926400;5.16316200;2023-04-03T03:25:06;3.40;99.90
19363;DHT22;9817;50.80926400;5.16316200;2023-04-03T03:27:32;3.40;99.90
19363;DHT22;9817;50.80926400;5.16316200;2023-04-03T03:29:58;3.30;99.90
19363;DHT22;9817;50.80926400;5.16316200;2023-04-03T03:32:23;3.30;99.90
19363;DHT22;9817;50.80926400;5.16316200;2023-04-03T03:34:49;3.30;99.90
19363;DHT22;9817;50.80926400;5.16316200;2023-04-03T03:37:14;3.30;99.90
19363;DHT22;9817;50.80926400;5.16316200;2023-04-03T03:39:40;3.30;99.90
19363;DHT22;9817;50.80926400;5.16316200;2023-04-03T03:42:06;3.30;99.90
19363;DHT22;9817;50.80926400;5.16316200;2023-04-03T03:44:31;3.30;99.90
19363;DHT22;9817;50.80926400;5.16316200;2023-04-03T03:46:57;3.20;99.90
19363;DHT22;9817;50.80926400;5.16316200;2023-04-03T03:49:22;3.00;99.90
19363;DHT22;9817;50.80926400;5.16316200;2023-04-03T03:51:48;3.00;99.90
19363;DHT22;9817;50.80926400;5.16316200;2023-04-03T03:54:14;3.00;99.90
19363;DHT22;9817;50.80926400;5.16316200;2023-04-03T03:56:40;3.10;99.90
19363;DHT22;9817;50.80926400;5.16316200;2023-04-03T03:59:05;3.10;99.90
19363;DHT22;9817;50.80926400;5.16316200;2023-04-03T04:01:31;3.00;99.90
19363;DHT22;9817;50.80926400;5.16316200;2023-04-03T04:03:57;2.90;99.90
19363;DHT22;9817;50.80926400;5.16316200;2023-04-03T04:06:22;2.80;99.90
19363;DHT22;9817;50.80926400;5.16316200;2023-04-03T04:08:48;2.80;99.90
19363;DHT22;9817;50.80926400;5.16316200;2023-04-03T04:11:14;2.90;99.90
19363;DHT22;9817;50.80926400;5.16316200;2023-04-03T04:13:39;3.00;99.90
19363;DHT22;9817;50.80926400;5.16316200;2023-04-03T04:16:06;2.90;99.90
19363;DHT22;9817;50.80926400;5.16316200;2023-04-03T04:18:32;2.90;99.90
19363;DHT22;9817;50.80926400;5.16316200;2023-04-03T04:20:58;2.90;99.90
19363;DHT22;9817;50.80926400;5.16316200;2023-04-03T04:23:24;2.90;99.90
19363;DHT22;9817;50.80926400;5.16316200;2023-04-03T04:25:50;3.00;99.90
19363;DHT22;9817;50.80926400;5.16316200;2023-04-03T04:28:16;3.00;99.90
19363;DHT22;9817;50.80926400;5.16316200;2023-04-03T04:30:41;3.00;99.90
19363;DHT22;9817;50.80926400;5.16316200;2023-04-03T04:33:07;2.90;99.90
19363;DHT22;9817;50.80926400;5.16316200;2023-04-03T04:35:34;2.90;99.90
19363;DHT22;9817;50.80926400;5.16316200;2023-04-03T04:37:59;3.10;99.90
19363;DHT22;9817;50.80926400;5.16316200;2023-04-03T04:40:26;3.00;99.90
19363;DHT22;9817;50.80926400;5.16316200;2023-04-03T04:42:51;3.00;99.90
19363;DHT22;9817;50.80926400;5.16316200;2023-04-03T04:45:17;2.90;99.90
19363;DHT22;9817;50.80926400;5.16316200;2023-04-03T04:47:43;2.90;99.90
19363;DHT22;9817;50.80926400;5.16316200;2023-04-03T04:50:09;2.90;99.90
19363;DHT22;9817;50.80926400;5.16316200;2023-04-03T04:52:35;2.80;99.90
19363;DHT22;9817;50.80926400;5.16316200;2023-04-03T04:55:01;2.80;99.90
19363;DHT22;9817;50.80926400;5.16316200;2023-04-03T04:57:26;2.70;99.90
19363;DHT22;9817;50.80926400;5.16316200;2023-04-03T04:59:52;2.70;99.90
19363;DHT22;9817;50.80926400;5.16316200;2023-04-03T05:02:18;2.70;99.90
19363;DHT22;9817;50.80926400;5.16316200;2023-04-03T05:04:43;2.60;99.90
19363;DHT22;9817;50.80926400;5.16316200;2023-04-03T05:07:09;2.60;99.90
19363;DHT22;9817;50.80926400;5.16316200;2023-04-03T05:09:35;2.60;99.90
19363;DHT22;9817;50.80926400;5.16316200;2023-04-03T05:12:00;2.50;99.90
19363;DHT22;9817;50.80926400;5.16316200;2023-04-03T05:14:27;2.50;99.90
19363;DHT22;9817;50.80926400;5.16316200;2023-04-03T05:16:52;2.60;99.90
19363;DHT22;9817;50.80926400;5.16316200;2023-04-03T05:19:22;2.60;99.90
19363;DHT22;9817;50.80926400;5.16316200;2023-04-03T05:21:48;2.60;99.90
19363;DHT22;9817;50.80926400;5.16316200;2023-04-03T05:24:14;2.50;99.90
19363;DHT22;9817;50.80926400;5.16316200;2023-04-03T05:26:41;2.60;99.90
19363;DHT22;9817;50.80926400;5.16316200;2023-04-03T05:29:07;2.50;99.90
19363;DHT22;9817;50.80926400;5.16316200;2023-04-03T05:31:32;2.50;99.90
19363;DHT22;9817;50.80926400;5.16316200;2023-04-03T05:33:58;2.60;99.90
19363;DHT22;9817;50.80926400;5.16316200;2023-04-03T05:36:24;2.60;99.90
19363;DHT22;9817;50.80926400;5.16316200;2023-04-03T05:38:51;2.60;99.90
19363;DHT22;9817;50.80926400;5.16316200;2023-04-03T05:41:17;2.70;99.90
19363;DHT22;9817;50.80926400;5.16316200;2023-04-03T05:43:42;2.80;99.90
19363;DHT22;9817;50.80926400;5.16316200;2023-04-03T05:46:10;2.90;99.90
19363;DHT22;9817;50.80926400;5.16316200;2023-04-03T05:48:36;3.00;99.90
19363;DHT22;9817;50.80926400;5.16316200;2023-04-03T05:51:02;3.10;99.90
19363;DHT22;9817;50.80926400;5.16316200;2023-04-03T05:53:29;3.30;99.90
19363;DHT22;9817;50.80926400;5.16316200;2023-04-03T05:55:56;3.40;99.90
19363;DHT22;9817;50.80926400;5.16316200;2023-04-03T05:58:22;3.60;99.90
19363;DHT22;9817;50.80926400;5.16316200;2023-04-03T06:00:48;3.80;99.90
19363;DHT22;9817;50.80926400;5.16316200;2023-04-03T06:03:14;3.90;99.90
19363;DHT22;9817;50.80926400;5.16316200;2023-04-03T06:05:39;4.00;99.90
19363;DHT22;9817;50.80926400;5.16316200;2023-04-03T06:08:05;4.40;99.90
19363;DHT22;9817;50.80926400;5.16316200;2023-04-03T06:10:31;4.70;99.90
19363;DHT22;9817;50.80926400;5.16316200;2023-04-03T06:12:56;4.90;99.90
19363;DHT22;9817;50.80926400;5.16316200;2023-04-03T06:15:22;5.10;99.90
19363;DHT22;9817;50.80926400;5.16316200;2023-04-03T06:17:48;5.10;99.90
19363;DHT22;9817;50.80926400;5.16316200;2023-04-03T06:20:14;5.60;99.90
19363;DHT22;9817;50.80926400;5.16316200;2023-04-03T06:22:39;5.90;99.90
19363;DHT22;9817;50.80926400;5.16316200;2023-04-03T06:25:07;5.90;99.90
19363;DHT22;9817;50.80926400;5.16316200;2023-04-03T06:27:33;6.00;99.90
19363;DHT22;9817;50.80926400;5.16316200;2023-04-03T06:29:58;6.10;99.90
19363;DHT22;9817;50.80926400;5.16316200;2023-04-03T06:32:24;6.20;99.90
19363;DHT22;9817;50.80926400;5.16316200;2023-04-03T06:34:50;6.10;99.90
19363;DHT22;9817;50.80926400;5.16316200;2023-04-03T06:37:21;5.80;99.90
19363;DHT22;9817;50.80926400;5.16316200;2023-04-03T06:39:47;5.60;99.90
19363;DHT22;9817;50.80926400;5.16316200;2023-04-03T06:42:13;5.40;99.90
19363;DHT22;9817;50.80926400;5.16316200;2023-04-03T06:44:39;5.30;99.90
19363;DHT22;9817;50.80926400;5.16316200;2023-04-03T06:47:05;5.30;99.90
19363;DHT22;9817;50.80926400;5.16316200;2023-04-03T06:49:31;5.90;99.90
19363;DHT22;9817;50.80926400;5.16316200;2023-04-03T06:51:57;6.50;99.90
19363;DHT22;9817;50.80926400;5.16316200;2023-04-03T06:54:23;7.20;99.90
19363;DHT22;9817;50.80926400;5.16316200;2023-04-03T06:56:49;7.70;99.90
19363;DHT22;9817;50.80926400;5.16316200;2023-04-03T06:59:15;7.90;99.90
19363;DHT22;9817;50.80926400;5.16316200;2023-04-03T07:01:41;8.00;99.90
19363;DHT22;9817;50.80926400;5.16316200;2023-04-03T07:04:07;9.20;99.90
19363;DHT22;9817;50.80926400;5.16316200;2023-04-03T07:06:34;10.40;99.90
19363;DHT22;9817;50.80926400;5.16316200;2023-04-03T07:09:00;10.80;99.90
19363;DHT22;9817;50.80926400;5.16316200;2023-04-03T07:11:26;10.60;99.90
19363;DHT22;9817;50.80926400;5.16316200;2023-04-03T07:13:52;10.70;99.90
19363;DHT22;9817;50.80926400;5.16316200;2023-04-03T07:16:18;10.00;99.90
19363;DHT22;9817;50.80926400;5.16316200;2023-04-03T07:18:45;10.20;99.90
19363;DHT22;9817;50.80926400;5.16316200;2023-04-03T07:21:11;10.00;99.90
19363;DHT22;9817;50.80926400;5.16316200;2023-04-03T07:23:37;10.00;99.90
19363;DHT22;9817;50.80926400;5.16316200;2023-04-03T07:26:03;9.40;99.90
19363;DHT22;9817;50.80926400;5.16316200;2023-04-03T07:28:28;9.60;99.90
19363;DHT22;9817;50.80926400;5.16316200;2023-04-03T07:31:02;10.40;99.90
19363;DHT22;9817;50.80926400;5.16316200;2023-04-03T07:33:28;10.30;99.90
19363;DHT22;9817;50.80926400;5.16316200;2023-04-03T07:35:54;9.50;99.90
19363;DHT22;9817;50.80926400;5.16316200;2023-04-03T07:38:20;8.80;99.90
19363;DHT22;9817;50.80926400;5.16316200;2023-04-03T07:40:49;8.90;99.90
19363;DHT22;9817;50.80926400;5.16316200;2023-04-03T07:43:16;9.20;99.90
19363;DHT22;9817;50.80926400;5.16316200;2023-04-03T07:45:43;9.30;99.90
19363;DHT22;9817;50.80926400;5.16316200;2023-04-03T07:48:10;9.40;99.90
19363;DHT22;9817;50.80926400;5.16316200;2023-04-03T07:50:36;9.90;99.90
19363;DHT22;9817;50.80926400;5.16316200;2023-04-03T07:53:02;10.40;99.90
19363;DHT22;9817;50.80926400;5.16316200;2023-04-03T07:55:28;11.30;99.90
19363;DHT22;9817;50.80926400;5.16316200;2023-04-03T07:57:54;10.70;99.90
19363;DHT22;9817;50.80926400;5.16316200;2023-04-03T08:00:20;11.00;99.90
19363;DHT22;9817;50.80926400;5.16316200;2023-04-03T08:02:46;12.20;99.90
19363;DHT22;9817;50.80926400;5.16316200;2023-04-03T08:05:18;14.00;99.90
19363;DHT22;9817;50.80926400;5.16316200;2023-04-03T08:07:44;16.70;99.90
19363;DHT22;9817;50.80926400;5.16316200;2023-04-03T08:10:10;18.60;99.90
19363;DHT22;9817;50.80926400;5.16316200;2023-04-03T08:12:36;20.40;98.60
19363;DHT22;9817;50.80926400;5.16316200;2023-04-03T08:15:03;21.30;94.60
19363;DHT22;9817;50.80926400;5.16316200;2023-04-03T08:17:29;21.90;91.60
19363;DHT22;9817;50.80926400;5.16316200;2023-04-03T08:19:54;22.30;89.30
19363;DHT22;9817;50.80926400;5.16316200;2023-04-03T08:22:20;22.60;86.50
19363;DHT22;9817;50.80926400;5.16316200;2023-04-03T08:24:46;23.10;82.60
19363;DHT22;9817;50.80926400;5.16316200;2023-04-03T08:27:12;23.20;79.30
19363;DHT22;9817;50.80926400;5.16316200;2023-04-03T08:29:37;23.90;79.70
19363;DHT22;9817;50.80926400;5.16316200;2023-04-03T08:32:04;22.10;78.30
19363;DHT22;9817;50.80926400;5.16316200;2023-04-03T08:34:30;21.50;79.60
19363;DHT22;9817;50.80926400;5.16316200;2023-04-03T08:36:56;20.10;83.10
19363;DHT22;9817;50.80926400;5.16316200;2023-04-03T08:39:21;21.10;82.70
19363;DHT22;9817;50.80926400;5.16316200;2023-04-03T08:41:47;21.70;81.00
19363;DHT22;9817;50.80926400;5.16316200;2023-04-03T08:47:28;21.80;80.00
19363;DHT22;9817;50.80926400;5.16316200;2023-04-03T08:50:11;22.90;77.40
19363;DHT22;9817;50.80926400;5.16316200;2023-04-03T08:52:57;22.40;77.20
19363;DHT22;9817;50.80926400;5.16316200;2023-04-03T08:57:58;21.30;76.80
19363;DHT22;9817;50.80926400;5.16316200;2023-04-03T09:00:28;22.40;77.30
19363;DHT22;9817;50.80926400;5.16316200;2023-04-03T09:02:56;23.30;74.30
19363;DHT22;9817;50.80926400;5.16316200;2023-04-03T09:05:33;23.60;73.20
19363;DHT22;9817;50.80926400;5.16316200;2023-04-03T09:10:43;22.90;73.90
19363;DHT22;9817;50.80926400;5.16316200;2023-04-03T09:15:34;21.50;72.20
19363;DHT22;9817;50.80926400;5.16316200;2023-04-03T09:23:53;23.10;73.60
19363;DHT22;9817;50.80926400;5.16316200;2023-04-03T09:26:24;22.60;73.20
19363;DHT22;9817;50.80926400;5.16316200;2023-04-03T09:28:54;22.20;73.10
19363;DHT22;9817;50.80926400;5.16316200;2023-04-03T09:31:25;22.70;71.10
19363;DHT22;9817;50.80926400;5.16316200;2023-04-03T09:33:55;23.20;72.20
19363;DHT22;9817;50.80926400;5.16316200;2023-04-03T09:37:02;23.20;69.80
19363;DHT22;9817;50.80926400;5.16316200;2023-04-03T09:39:32;22.80;68.20
19363;DHT22;9817;50.80926400;5.16316200;2023-04-03T09:42:21;23.10;71.30
19363;DHT22;9817;50.80926400;5.16316200;2023-04-03T09:45:02;23.80;68.20
19363;DHT22;9817;50.80926400;5.16316200;2023-04-03T09:47:33;24.40;67.00
19363;DHT22;9817;50.80926400;5.16316200;2023-04-03T09:52:42;22.10;67.30
19363;DHT22;9817;50.80926400;5.16316200;2023-04-03T09:55:17;22.30;71.30
19363;DHT22;9817;50.80926400;5.16316200;2023-04-03T09:57:46;21.70;68.70
19363;DHT22;9817;50.80926400;5.16316200;2023-04-03T10:00:23;21.00;71.60
19363;DHT22;9817;50.80926400;5.16316200;2023-04-03T10:02:54;20.00;72.10
19363;DHT22;9817;50.80926400;5.16316200;2023-04-03T10:05:34;19.50;73.90
19363;DHT22;9817;50.80926400;5.16316200;2023-04-03T10:10:33;17.20;77.10
19363;DHT22;9817;50.80926400;5.16316200;2023-04-03T10:13:09;16.50;77.90
19363;DHT22;9817;50.80926400;5.16316200;2023-04-03T10:15:46;15.60;79.60
19363;DHT22;9817;50.80926400;5.16316200;2023-04-03T10:18:31;14.90;82.70
19363;DHT22;9817;50.80926400;5.16316200;2023-04-03T10:21:05;14.20;82.10
19363;DHT22;9817;50.80926400;5.16316200;2023-04-03T10:23:49;13.50;84.00
19363;DHT22;9817;50.80926400;5.16316200;2023-04-03T10:29:34;13.70;86.10
19363;DHT22;9817;50.80926400;5.16316200;2023-04-03T10:34:47;13.10;90.80
19363;DHT22;9817;50.80926400;5.16316200;2023-04-03T10:37:25;13.40;88.70
19363;DHT22;9817;50.80926400;5.16316200;2023-04-03T10:40:17;13.50;89.70
19363;DHT22;9817;50.80926400;5.16316200;2023-04-03T10:43:02;13.60;87.40
19363;DHT22;9817;50.80926400;5.16316200;2023-04-03T10:48:16;13.40;90.40
19363;DHT22;9817;50.80926400;5.16316200;2023-04-03T10:50:56;13.40;89.20
19363;DHT22;9817;50.80926400;5.16316200;2023-04-03T10:53:36;13.10;85.80
19363;DHT22;9817;50.80926400;5.16316200;2023-04-03T10:58:48;12.70;84.20
19363;DHT22;9817;50.80926400;5.16316200;2023-04-03T11:01:22;12.50;83.60
19363;DHT22;9817;50.80926400;5.16316200;2023-04-03T11:03:56;12.40;84.40
19363;DHT22;9817;50.80926400;5.16316200;2023-04-03T11:06:24;12.50;81.40
19363;DHT22;9817;50.80926400;5.16316200;2023-04-03T11:08:55;12.60;81.10
19363;DHT22;9817;50.80926400;5.16316200;2023-04-03T11:11:26;12.90;81.40
19363;DHT22;9817;50.80926400;5.16316200;2023-04-03T11:13:55;12.60;77.10
19363;DHT22;9817;50.80926400;5.16316200;2023-04-03T11:16:25;12.30;81.20
19363;DHT22;9817;50.80926400;5.16316200;2023-04-03T11:19:07;12.40;81.80
19363;DHT22;9817;50.80926400;5.16316200;2023-04-03T11:21:40;12.20;74.60
19363;DHT22;9817;50.80926400;5.16316200;2023-04-03T11:24:17;12.20;73.30
19363;DHT22;9817;50.80926400;5.16316200;2023-04-03T11:26:46;12.20;71.30
19363;DHT22;9817;50.80926400;5.16316200;2023-04-03T11:29:17;12.00;72.40
19363;DHT22;9817;50.80926400;5.16316200;2023-04-03T11:34:49;11.80;75.60
19363;DHT22;9817;50.80926400;5.16316200;2023-04-03T11:37:38;11.80;74.80
19363;DHT22;9817;50.80926400;5.16316200;2023-04-03T11:40:28;12.20;76.10
19363;DHT22;9817;50.80926400;5.16316200;2023-04-03T11:43:07;12.40;76.60
19363;DHT22;9817;50.80926400;5.16316200;2023-04-03T11:50:47;12.70;80.00
19363;DHT22;9817;50.80926400;5.16316200;2023-04-03T11:55:52;13.00;77.30
19363;DHT22;9817;50.80926400;5.16316200;2023-04-03T11:58:21;12.40;76.70
19363;DHT22;9817;50.80926400;5.16316200;2023-04-03T12:05:56;12.10;81.20
19363;DHT22;9817;50.80926400;5.16316200;2023-04-03T12:08:43;12.20;81.00
19363;DHT22;9817;50.80926400;5.16316200;2023-04-03T12:16:24;12.30;82.60
19363;DHT22;9817;50.80926400;5.16316200;2023-04-03T12:29:23;12.10;81.30
19363;DHT22;9817;50.80926400;5.16316200;2023-04-03T12:41:19;12.10;83.60
19363;DHT22;9817;50.80926400;5.16316200;2023-04-03T12:46:46;11.60;83.60
19363;DHT22;9817;50.80926400;5.16316200;2023-04-03T12:49:41;11.60;85.00
19363;DHT22;9817;50.80926400;5.16316200;2023-04-03T12:52:22;11.80;88.10
19363;DHT22;9817;50.80926400;5.16316200;2023-04-03T12:54:51;12.10;84.90
19363;DHT22;9817;50.80926400;5.16316200;2023-04-03T12:57:20;12.00;81.40
19363;DHT22;9817;50.80926400;5.16316200;2023-04-03T12:59:47;11.70;81.80
19363;DHT22;9817;50.80926400;5.16316200;2023-04-03T13:02:27;12.00;82.90
19363;DHT22;9817;50.80926400;5.16316200;2023-04-03T13:04:56;11.80;86.20
19363;DHT22;9817;50.80926400;5.16316200;2023-04-03T13:07:24;12.10;86.40
19363;DHT22;9817;50.80926400;5.16316200;2023-04-03T13:09:57;12.40;85.00
19363;DHT22;9817;50.80926400;5.16316200;2023-04-03T13:12:24;12.40;85.30
19363;DHT22;9817;50.80926400;5.16316200;2023-04-03T13:15:00;12.50;83.00
19363;DHT22;9817;50.80926400;5.16316200;2023-04-03T13:17:27;12.50;85.60
19363;DHT22;9817;50.80926400;5.16316200;2023-04-03T13:19:53;12.50;86.00
19363;DHT22;9817;50.80926400;5.16316200;2023-04-03T13:24:48;12.70;85.60
19363;DHT22;9817;50.80926400;5.16316200;2023-04-03T13:27:15;12.70;83.80
19363;DHT22;9817;50.80926400;5.16316200;2023-04-03T13:29:41;12.70;85.00
19363;DHT22;9817;50.80926400;5.16316200;2023-04-03T13:32:16;12.70;86.20
19363;DHT22;9817;50.80926400;5.16316200;2023-04-03T13:34:43;12.60;86.20
19363;DHT22;9817;50.80926400;5.16316200;2023-04-03T13:37:27;12.50;83.70
19363;DHT22;9817;50.80926400;5.16316200;2023-04-03T13:40:11;12.50;86.10
19363;DHT22;9817;50.80926400;5.16316200;2023-04-03T13:42:39;12.70;83.80
19363;DHT22;9817;50.80926400;5.16316200;2023-04-03T13:45:27;12.70;83.40
19363;DHT22;9817;50.80926400;5.16316200;2023-04-03T13:51:01;12.20;83.80
19363;DHT22;9817;50.80926400;5.16316200;2023-04-03T13:53:29;12.20;82.50
19363;DHT22;9817;50.80926400;5.16316200;2023-04-03T13:56:06;12.00;84.20
19363;DHT22;9817;50.80926400;5.16316200;2023-04-03T13:58:33;12.00;83.50
19363;DHT22;9817;50.80926400;5.16316200;2023-04-03T14:01:19;12.20;84.80
19363;DHT22;9817;50.80926400;5.16316200;2023-04-03T14:03:59;12.40;84.00
19363;DHT22;9817;50.80926400;5.16316200;2023-04-03T14:06:25;12.30;85.00
19363;DHT22;9817;50.80926400;5.16316200;2023-04-03T14:08:51;12.30;85.60
19363;DHT22;9817;50.80926400;5.16316200;2023-04-03T14:11:21;12.40;84.20
19363;DHT22;9817;50.80926400;5.16316200;2023-04-03T14:13:48;12.50;84.30
19363;DHT22;9817;50.80926400;5.16316200;2023-04-03T14:16:19;12.30;83.10
19363;DHT22;9817;50.80926400;5.16316200;2023-04-03T14:18:46;12.40;87.50
19363;DHT22;9817;50.80926400;5.16316200;2023-04-03T14:21:14;12.60;85.60
19363;DHT22;9817;50.80926400;5.16316200;2023-04-03T14:23:40;12.60;84.30
19363;DHT22;9817;50.80926400;5.16316200;2023-04-03T14:26:19;12.60;81.60
19363;DHT22;9817;50.80926400;5.16316200;2023-04-03T14:28:47;12.50;81.70
19363;DHT22;9817;50.80926400;5.16316200;2023-04-03T14:31:14;12.50;82.30
19363;DHT22;9817;50.80926400;5.16316200;2023-04-03T14:33:41;12.50;83.10
19363;DHT22;9817;50.80926400;5.16316200;2023-04-03T14:36:16;12.30;80.40
19363;DHT22;9817;50.80926400;5.16316200;2023-04-03T14:38:42;12.00;79.70
19363;DHT22;9817;50.80926400;5.16316200;2023-04-03T14:41:12;11.80;80.80
19363;DHT22;9817;50.80926400;5.16316200;2023-04-03T14:43:38;11.70;81.60
19363;DHT22;9817;50.80926400;5.16316200;2023-04-03T14:46:04;11.80;84.10
19363;DHT22;9817;50.80926400;5.16316200;2023-04-03T14:48:31;12.00;82.60
19363;DHT22;9817;50.80926400;5.16316200;2023-04-03T14:50:57;12.00;84.90
19363;DHT22;9817;50.80926400;5.16316200;2023-04-03T14:53:22;12.00;84.40
19363;DHT22;9817;50.80926400;5.16316200;2023-04-03T14:55:50;12.20;83.50
19363;DHT22;9817;50.80926400;5.16316200;2023-04-03T14:58:18;12.20;85.30
19363;DHT22;9817;50.80926400;5.16316200;2023-04-03T15:00:45;12.20;84.50
19363;DHT22;9817;50.80926400;5.16316200;2023-04-03T15:03:19;12.30;86.40
19363;DHT22;9817;50.80926400;5.16316200;2023-04-03T15:05:48;12.20;81.30
19363;DHT22;9817;50.80926400;5.16316200;2023-04-03T15:08:25;12.10;81.90
19363;DHT22;9817;50.80926400;5.16316200;2023-04-03T15:10:52;12.00;81.90
19363;DHT22;9817;50.80926400;5.16316200;2023-04-03T15:13:19;11.90;83.60
19363;DHT22;9817;50.80926400;5.16316200;2023-04-03T15:15:45;12.00;83.30
19363;DHT22;9817;50.80926400;5.16316200;2023-04-03T15:18:15;12.10;82.80
19363;DHT22;9817;50.80926400;5.16316200;2023-04-03T15:20:42;12.00;82.10
19363;DHT22;9817;50.80926400;5.16316200;2023-04-03T15:23:09;11.80;82.70